Time;durP1;ratioP1;P1;durP2;ratioP2;P2;SDS_P1;SDS_P2;PMS_P1;PMS_P2;Temp;Humidity;BMP_temperature;BMP_pressure;BME280_temperature;BME280_humidity;BME280_pressure;Samples;Min_cycle;Max_cycle;Signal;HPM_P1;HPM_P2
2021/10/01 00:01:47;;;;;;;4.33;1.00;;;13.60;99.90;;;;;;5060467;28;20184;-80
2021/10/01 00:04:15;;;;;;;2.20;0.90;;;13.60;99.90;;;;;;5034423;28;20332;-79
2021/10/01 00:06:41;;;;;;;5.13;1.27;;;13.60;99.90;;;;;;5034677;28;21270;-79
2021/10/01 00:09:07;;;;;;;1.93;0.80;;;13.60;99.90;;;;;;5034157;28;20280;-80
2021/10/01 00:11:33;;;;;;;3.27;0.80;;;13.70;99.90;;;;;;5050722;28;20572;-79
2021/10/01 00:13:59;;;;;;;4.13;1.13;;;13.60;99.90;;;;;;5034225;28;20231;-79
2021/10/01 00:16:25;;;;;;;2.33;1.27;;;13.60;99.90;;;;;;5051042;28;20579;-79
2021/10/01 00:18:52;;;;;;;1.40;0.80;;;13.60;99.90;;;;;;5034118;28;20258;-80
2021/10/01 00:21:17;;;;;;;2.08;0.80;;;13.50;99.90;;;;;;5034083;28;20226;-79
2021/10/01 00:23:43;;;;;;;1.93;1.00;;;13.50;99.90;;;;;;5050835;28;20252;-79
2021/10/01 00:26:09;;;;;;;2.43;0.80;;;13.50;99.90;;;;;;5034219;28;20708;-79
2021/10/01 00:28:35;;;;;;;2.35;0.90;;;13.60;99.90;;;;;;5034197;28;20645;-79
2021/10/01 00:31:01;;;;;;;1.83;0.70;;;13.60;99.90;;;;;;5050699;28;20189;-79
2021/10/01 00:33:28;;;;;;;2.10;0.77;;;13.60;99.90;;;;;;5050849;28;20165;-79
2021/10/01 00:35:54;;;;;;;2.30;0.77;;;13.60;99.90;;;;;;5050617;28;20559;-79
2021/10/01 00:38:22;;;;;;;2.70;1.23;;;13.60;99.90;;;;;;5060467;28;20301;-79
2021/10/01 00:40:48;;;;;;;2.25;0.88;;;13.60;99.90;;;;;;5034460;28;21163;-80
2021/10/01 00:43:14;;;;;;;2.90;0.90;;;13.60;99.90;;;;;;5034983;28;20183;-78
2021/10/01 00:45:40;;;;;;;1.60;0.70;;;13.50;99.90;;;;;;5034843;28;20209;-79
2021/10/01 00:48:07;;;;;;;2.25;0.80;;;13.50;99.90;;;;;;5050946;28;20655;-79
2021/10/01 00:50:32;;;;;;;3.37;1.30;;;13.50;99.90;;;;;;5034346;28;20193;-79
2021/10/01 00:52:58;;;;;;;2.43;0.87;;;13.40;99.90;;;;;;5017866;28;20563;-78
2021/10/01 00:55:25;;;;;;;5.35;0.80;;;13.40;99.90;;;;;;5017517;28;20563;-79
2021/10/01 00:57:51;;;;;;;3.47;0.95;;;13.40;99.90;;;;;;5033929;28;20607;-79
2021/10/01 01:00:49;;;;;;;3.60;0.90;;;13.40;99.90;;;;;;5033211;28;20247;-79
2021/10/01 01:03:04;;;;;;;2.85;1.02;;;13.40;99.90;;;;;;5050260;28;20185;-79
2021/10/01 01:05:59;;;;;;;4.70;0.90;;;13.40;99.90;;;;;;5033533;28;20704;-79
2021/10/01 01:08:37;;;;;;;3.67;0.80;;;13.40;99.90;;;;;;5050295;28;20196;-79
2021/10/01 01:11:11;;;;;;;1.55;0.70;;;13.30;99.90;;;;;;5033202;28;20181;-79
2021/10/01 01:13:48;;;;;;;1.95;0.80;;;13.30;99.90;;;;;;5034166;28;20169;-79
2021/10/01 01:16:22;;;;;;;1.85;0.80;;;13.30;99.90;;;;;;5058371;28;20173;-79
2021/10/01 01:18:52;;;;;;;2.22;0.70;;;13.30;99.90;;;;;;5033727;28;20208;-79
2021/10/01 01:21:41;;;;;;;2.20;0.80;;;13.30;99.90;;;;;;5050025;28;20169;-80
2021/10/01 01:24:32;;;;;;;6.38;0.77;;;13.20;99.90;;;;;;5024488;28;20254;-80
2021/10/01 01:27:20;;;;;;;2.78;0.95;;;13.20;99.90;;;;;;5033861;28;20854;-79
2021/10/01 01:30:06;;;;;;;3.20;0.80;;;13.10;99.90;;;;;;5049866;28;20175;-79
2021/10/01 01:32:40;;;;;;;4.10;1.00;;;13.10;99.90;;;;;;5033525;28;20173;-80
2021/10/01 01:35:12;;;;;;;3.45;1.20;;;13.10;99.90;;;;;;5050078;28;20177;-80
2021/10/01 01:37:44;;;;;;;4.15;0.90;;;13.10;99.90;;;;;;5033365;28;20208;-80
2021/10/01 01:40:14;;;;;;;1.70;0.90;;;13.10;99.90;;;;;;5017693;28;20181;-80
2021/10/01 01:42:42;;;;;;;2.90;0.75;;;13.00;99.90;;;;;;5033734;28;20223;-80
2021/10/01 01:45:12;;;;;;;2.38;0.70;;;13.00;99.90;;;;;;5050715;28;20229;-80
2021/10/01 01:47:39;;;;;;;1.95;0.80;;;13.00;99.90;;;;;;5050239;28;20177;-80
2021/10/01 01:50:07;;;;;;;2.28;0.80;;;13.00;99.90;;;;;;5033291;28;20169;-80
2021/10/01 01:52:36;;;;;;;2.00;0.98;;;13.00;99.90;;;;;;5025427;28;20177;-80
2021/10/01 01:55:03;;;;;;;4.05;0.80;;;12.90;99.90;;;;;;5017241;28;20180;-80
2021/10/01 01:57:30;;;;;;;2.45;0.80;;;13.00;99.90;;;;;;5032924;28;20184;-80
2021/10/01 01:59:57;;;;;;;3.15;1.00;;;12.90;99.90;;;;;;5032642;28;20206;-80
2021/10/01 02:02:36;;;;;;;3.25;0.80;;;12.90;99.90;;;;;;5038380;28;20177;-80
2021/10/01 02:05:03;;;;;;;1.75;0.70;;;12.90;99.90;;;;;;5036675;28;20703;-80
2021/10/01 02:07:30;;;;;;;3.58;0.80;;;12.90;99.90;;;;;;5020057;28;20173;-80
2021/10/01 02:09:57;;;;;;;2.80;0.90;;;12.90;99.90;;;;;;5053191;28;20256;-80
2021/10/01 02:12:25;;;;;;;5.05;1.30;;;12.90;99.90;;;;;;5036400;28;20173;-80
2021/10/01 02:14:53;;;;;;;1.80;0.80;;;12.90;99.90;;;;;;5036425;28;20238;-80
2021/10/01 02:17:20;;;;;;;2.80;0.80;;;12.80;99.90;;;;;;5052726;28;20194;-80
2021/10/01 02:19:47;;;;;;;4.15;1.33;;;12.80;99.90;;;;;;5052964;28;20176;-80
2021/10/01 02:22:16;;;;;;;3.42;0.90;;;12.80;99.90;;;;;;5052949;28;20230;-80
2021/10/01 02:24:44;;;;;;;2.55;0.70;;;12.80;99.90;;;;;;5036598;28;20554;-80
2021/10/01 02:27:17;;;;;;;2.55;0.77;;;12.80;99.90;;;;;;5053139;28;20795;-80
2021/10/01 02:29:58;;;;;;;2.10;0.70;;;12.80;99.90;;;;;;5061074;28;20271;-80
2021/10/01 02:32:32;;;;;;;1.60;0.70;;;12.70;99.90;;;;;;5036283;28;20177;-80
2021/10/01 02:34:58;;;;;;;3.60;0.90;;;12.70;99.90;;;;;;5036435;28;20181;-80
2021/10/01 02:37:25;;;;;;;2.05;0.90;;;12.70;99.90;;;;;;5036256;28;20188;-80
2021/10/01 02:39:52;;;;;;;3.45;0.82;;;12.60;99.90;;;;;;5052655;28;20188;-80
2021/10/01 02:42:21;;;;;;;2.42;0.80;;;12.60;99.90;;;;;;5036905;28;20169;-80
2021/10/01 02:44:50;;;;;;;1.90;1.00;;;12.60;99.90;;;;;;5038167;28;20204;-80
2021/10/01 02:47:17;;;;;;;2.00;0.70;;;12.60;99.90;;;;;;5038669;28;20547;-80
2021/10/01 02:49:45;;;;;;;1.80;0.77;;;12.60;99.90;;;;;;5053264;28;20193;-80
2021/10/01 02:52:29;;;;;;;4.80;0.88;;;12.60;99.90;;;;;;5052500;28;20200;-79
2021/10/01 02:55:43;;;;;;;3.72;0.90;;;12.60;99.90;;;;;;5052304;28;20184;-79
2021/10/01 02:58:17;;;;;;;3.42;1.13;;;12.50;99.90;;;;;;5052215;28;20220;-79
2021/10/01 03:00:44;;;;;;;2.15;0.82;;;12.50;99.90;;;;;;5051873;28;20500;-79
2021/10/01 03:03:20;;;;;;;2.05;0.90;;;12.60;99.90;;;;;;5035532;28;20649;-80
2021/10/01 03:05:47;;;;;;;4.22;1.05;;;12.60;99.90;;;;;;5057078;28;20226;-79
2021/10/01 03:08:16;;;;;;;5.13;0.95;;;12.50;99.90;;;;;;5052024;28;20192;-79
2021/10/01 03:10:44;;;;;;;5.32;0.90;;;12.60;99.90;;;;;;5051722;28;20206;-79
2021/10/01 03:13:11;;;;;;;3.25;0.90;;;12.50;99.90;;;;;;5053589;28;20215;-79
2021/10/01 03:15:37;;;;;;;3.78;0.80;;;12.50;99.90;;;;;;5052466;28;20291;-79
2021/10/01 03:18:04;;;;;;;3.25;0.73;;;12.50;99.90;;;;;;5052904;28;20400;-79
2021/10/01 03:20:30;;;;;;;4.60;0.95;;;12.50;99.90;;;;;;5052327;28;20639;-79
2021/10/01 03:22:58;;;;;;;2.67;1.00;;;12.50;99.90;;;;;;5052708;28;20165;-79
2021/10/01 03:25:24;;;;;;;4.22;0.75;;;12.50;99.90;;;;;;5052099;28;20204;-79
2021/10/01 03:27:50;;;;;;;4.83;0.97;;;12.50;99.90;;;;;;5051616;28;20185;-80
2021/10/01 03:30:17;;;;;;;3.08;0.75;;;12.50;99.90;;;;;;5051247;28;20569;-80
2021/10/01 03:32:45;;;;;;;3.30;0.90;;;12.50;99.90;;;;;;5052183;28;20164;-80
2021/10/01 03:35:12;;;;;;;2.03;0.90;;;12.50;99.90;;;;;;5051817;28;20568;-80
2021/10/01 03:37:39;;;;;;;2.38;0.88;;;12.50;99.90;;;;;;5051445;28;20239;-80
2021/10/01 03:40:11;;;;;;;7.43;1.48;;;12.50;99.90;;;;;;5053422;22;20225;-79
2021/10/01 03:42:39;;;;;;;4.47;0.88;;;12.50;99.90;;;;;;5031959;28;20181;-79
2021/10/01 03:45:08;;;;;;;2.40;1.00;;;12.60;99.90;;;;;;5014928;28;20213;-79
2021/10/01 03:47:34;;;;;;;2.92;1.00;;;12.60;99.90;;;;;;5031026;28;20594;-79
2021/10/01 03:50:01;;;;;;;4.50;1.27;;;12.60;99.90;;;;;;5030502;28;20217;-79
2021/10/01 03:52:27;;;;;;;3.15;0.90;;;12.60;99.90;;;;;;5031174;28;20174;-79
2021/10/01 03:54:56;;;;;;;3.95;0.90;;;12.60;99.90;;;;;;5031140;28;20234;-79
2021/10/01 03:57:22;;;;;;;2.40;0.80;;;12.70;99.90;;;;;;5030884;28;20197;-79
2021/10/01 03:59:50;;;;;;;1.50;0.70;;;12.70;99.90;;;;;;5014561;28;20221;-78
2021/10/01 04:02:16;;;;;;;3.40;1.10;;;12.80;99.90;;;;;;5030986;28;20289;-79
2021/10/01 04:04:42;;;;;;;3.60;1.10;;;12.80;99.90;;;;;;5019112;28;20178;-79
2021/10/01 04:07:08;;;;;;;1.98;0.88;;;12.80;99.90;;;;;;5031043;28;20201;-79
2021/10/01 04:09:34;;;;;;;2.60;0.90;;;12.80;99.90;;;;;;5014135;28;20232;-80
2021/10/01 04:12:00;;;;;;;1.57;0.80;;;12.80;99.90;;;;;;5030920;28;20166;-79
2021/10/01 04:14:29;;;;;;;1.95;0.80;;;12.80;99.90;;;;;;5030845;28;20688;-77
2021/10/01 04:16:56;;;;;;;5.45;1.33;;;12.80;99.90;;;;;;5030732;28;20208;-78
2021/10/01 04:19:21;;;;;;;2.85;1.25;;;12.80;99.90;;;;;;5030413;28;20221;-78
2021/10/01 04:21:47;;;;;;;2.60;0.90;;;12.90;99.90;;;;;;5014295;28;20604;-78
2021/10/01 04:24:13;;;;;;;2.95;1.00;;;12.80;99.90;;;;;;5013286;28;20998;-78
2021/10/01 04:26:45;;;;;;;2.03;0.70;;;12.80;99.90;;;;;;5030670;28;20209;-78
2021/10/01 04:29:11;;;;;;;1.83;1.17;;;12.80;99.90;;;;;;5030189;28;20197;-78
2021/10/01 04:31:37;;;;;;;1.67;0.70;;;12.80;99.90;;;;;;5014359;28;20189;-78
2021/10/01 04:34:04;;;;;;;3.03;0.80;;;12.80;99.90;;;;;;5030344;28;20174;-78
2021/10/01 04:36:32;;;;;;;2.85;0.80;;;12.80;99.90;;;;;;5014317;28;20572;-78
2021/10/01 04:38:59;;;;;;;2.15;0.90;;;12.80;99.90;;;;;;5030276;28;20541;-78
2021/10/01 04:41:25;;;;;;;4.25;0.80;;;12.80;99.90;;;;;;5033600;28;20174;-79
2021/10/01 04:43:51;;;;;;;3.78;0.80;;;12.70;99.90;;;;;;5031009;28;20176;-79
2021/10/01 04:46:30;;;;;;;2.17;0.90;;;12.70;99.90;;;;;;5030608;28;20236;-79
2021/10/01 04:48:56;;;;;;;2.20;0.90;;;12.70;99.90;;;;;;5031527;28;20197;-79
2021/10/01 04:51:26;;;;;;;4.45;1.10;;;12.70;99.90;;;;;;5030041;28;20611;-78
2021/10/01 04:53:52;;;;;;;4.07;0.90;;;12.70;99.90;;;;;;5013761;28;20178;-79
2021/10/01 04:56:19;;;;;;;2.63;0.70;;;12.60;99.90;;;;;;5030220;28;20660;-79
2021/10/01 04:58:45;;;;;;;1.53;0.80;;;12.60;99.90;;;;;;5030024;28;20193;-78
2021/10/01 05:01:33;;;;;;;2.58;0.80;;;12.60;99.90;;;;;;5030000;28;20256;-78
2021/10/01 05:04:17;;;;;;;2.60;0.80;;;12.60;99.90;;;;;;5030326;28;20178;-78
2021/10/01 05:07:12;;;;;;;2.50;0.70;;;12.60;99.90;;;;;;5030355;28;20238;-78
2021/10/01 05:10:11;;;;;;;2.28;0.80;;;12.60;99.90;;;;;;5018599;28;20229;-79
2021/10/01 05:13:09;;;;;;;3.47;1.00;;;12.60;99.90;;;;;;5019554;28;20269;-79
2021/10/01 05:16:03;;;;;;;3.67;0.80;;;12.50;99.90;;;;;;5023002;28;20278;-80
2021/10/01 05:19:07;;;;;;;2.95;0.70;;;12.60;99.90;;;;;;4977666;28;20662;-79
2021/10/01 05:21:51;;;;;;;2.85;0.85;;;12.50;99.90;;;;;;4973516;28;20570;-79
2021/10/01 05:24:19;;;;;;;4.60;0.60;;;12.50;99.90;;;;;;4997360;28;20186;-78
2021/10/01 05:26:44;;;;;;;5.23;0.80;;;12.50;99.90;;;;;;5030011;28;20209;-79
2021/10/01 05:29:10;;;;;;;2.90;0.83;;;12.50;99.90;;;;;;5029889;28;20182;-79
2021/10/01 05:31:36;;;;;;;2.00;1.00;;;12.50;99.90;;;;;;5013253;28;20715;-79
2021/10/01 05:34:03;;;;;;;2.13;0.70;;;12.40;99.90;;;;;;5029934;28;20200;-80
2021/10/01 05:36:29;;;;;;;2.50;0.70;;;12.50;99.90;;;;;;5034857;28;20268;-80
2021/10/01 05:38:55;;;;;;;5.10;0.77;;;12.50;99.90;;;;;;5033563;28;20209;-80
2021/10/01 05:41:21;;;;;;;2.83;0.80;;;12.50;99.90;;;;;;5033268;28;20997;-79
2021/10/01 05:43:47;;;;;;;2.80;1.05;;;12.50;99.90;;;;;;5017102;28;20174;-79
2021/10/01 05:46:14;;;;;;;3.83;0.90;;;12.50;99.90;;;;;;5034670;28;20193;-79
2021/10/01 05:49:01;;;;;;;2.97;1.73;;;12.50;99.90;;;;;;5033383;28;20205;-79
2021/10/01 05:51:49;;;;;;;2.22;0.80;;;12.50;99.90;;;;;;5034730;28;20177;-79
2021/10/01 05:54:47;;;;;;;3.13;1.33;;;12.50;99.90;;;;;;5022932;28;20180;-80
2021/10/01 05:57:32;;;;;;;3.65;0.80;;;12.50;99.90;;;;;;5038620;28;20570;-79
2021/10/01 06:00:16;;;;;;;2.55;1.30;;;12.50;99.90;;;;;;5016606;28;20190;-79
2021/10/01 06:02:43;;;;;;;4.93;1.25;;;12.50;99.90;;;;;;5016973;28;20568;-79
2021/10/01 06:05:10;;;;;;;2.50;0.70;;;12.50;99.90;;;;;;5033517;28;20339;-80
2021/10/01 06:07:36;;;;;;;3.08;0.70;;;12.60;99.90;;;;;;5034404;28;20162;-79
2021/10/01 06:10:03;;;;;;;2.03;0.88;;;12.60;99.90;;;;;;5033015;28;20267;-79
2021/10/01 06:12:29;;;;;;;2.15;0.70;;;12.60;99.90;;;;;;5034286;28;20585;-79
2021/10/01 06:14:54;;;;;;;3.23;0.90;;;12.60;99.90;;;;;;5033274;28;20205;-79
2021/10/01 06:17:20;;;;;;;2.83;0.80;;;12.70;99.90;;;;;;5016406;28;20526;-79
2021/10/01 06:19:46;;;;;;;2.13;0.70;;;12.70;99.90;;;;;;5034027;28;20224;-79
2021/10/01 06:22:13;;;;;;;2.27;0.80;;;12.70;99.90;;;;;;5032947;28;20642;-79
2021/10/01 06:24:39;;;;;;;5.00;0.80;;;12.70;99.90;;;;;;5033063;28;20178;-78
2021/10/01 06:27:06;;;;;;;3.20;0.85;;;12.80;99.90;;;;;;5034000;28;20679;-79
2021/10/01 06:29:32;;;;;;;2.75;0.73;;;12.80;99.90;;;;;;5032704;28;20181;-80
2021/10/01 06:31:58;;;;;;;2.03;0.90;;;12.80;99.90;;;;;;5034466;28;20169;-80
2021/10/01 06:34:24;;;;;;;2.75;0.90;;;12.80;99.90;;;;;;5036552;28;20524;-80
2021/10/01 06:36:50;;;;;;;1.53;0.60;;;12.90;99.90;;;;;;5033905;28;20200;-78
2021/10/01 06:39:16;;;;;;;4.57;0.93;;;12.90;99.90;;;;;;5033091;28;20205;-79
2021/10/01 06:41:45;;;;;;;3.03;0.90;;;13.00;99.90;;;;;;5036627;28;20180;-80
2021/10/01 06:44:16;;;;;;;2.80;1.23;;;13.00;99.90;;;;;;5035023;28;20260;-79
2021/10/01 06:46:49;;;;;;;3.25;0.80;;;13.00;99.90;;;;;;5024839;28;20212;-79
2021/10/01 07:22:04;;;;;;;2.30;0.87;;;14.20;99.90;;;;;;5031654;28;21142;-79
2021/10/01 08:19:49;;;;;;;2.67;0.70;;;22.60;92.70;;;;;;5014004;28;20660;-78
2021/10/01 08:22:15;;;;;;;1.77;0.70;;;22.90;93.00;;;;;;5013935;28;20604;-79
2021/10/01 08:24:41;;;;;;;4.30;0.73;;;22.90;91.30;;;;;;5034010;28;20169;-79
2021/10/01 08:27:07;;;;;;;4.10;0.80;;;23.00;91.30;;;;;;5032131;28;20560;-79
2021/10/01 08:29:35;;;;;;;1.77;0.73;;;23.10;91.10;;;;;;5014027;28;20711;-79
2021/10/01 08:32:03;;;;;;;2.17;0.60;;;23.00;89.60;;;;;;5013876;28;20568;-79
2021/10/01 08:34:31;;;;;;;2.17;0.80;;;23.10;87.70;;;;;;5013893;28;20576;-79
2021/10/01 08:36:57;;;;;;;3.47;0.60;;;23.20;89.10;;;;;;5029986;28;20582;-79
2021/10/01 08:39:23;;;;;;;2.67;0.80;;;23.40;89.50;;;;;;5029775;28;20635;-79
2021/10/01 08:41:49;;;;;;;1.90;0.60;;;23.50;86.70;;;;;;5030289;28;20580;-79
2021/10/01 08:44:16;;;;;;;2.43;0.70;;;23.90;90.00;;;;;;5030302;28;20631;-79
2021/10/01 08:46:48;;;;;;;1.67;0.70;;;24.30;85.00;;;;;;5029989;28;20208;-79
2021/10/01 08:49:14;;;;;;;3.90;0.97;;;24.60;82.50;;;;;;5013531;28;20609;-78
2021/10/01 08:51:40;;;;;;;3.03;0.73;;;25.00;84.20;;;;;;5031081;28;20572;-78
2021/10/01 08:54:07;;;;;;;2.07;0.70;;;25.20;81.20;;;;;;5030550;28;20908;-78
2021/10/01 08:56:33;;;;;;;3.10;0.80;;;25.40;81.10;;;;;;5030274;28;20668;-79
2021/10/01 08:58:59;;;;;;;1.87;0.80;;;25.60;77.50;;;;;;5013724;28;20750;-78
2021/10/01 09:01:25;;;;;;;4.67;0.60;;;25.60;76.00;;;;;;5017664;28;20729;-78
2021/10/01 09:03:52;;;;;;;1.60;0.80;;;25.70;74.20;;;;;;5013896;28;21205;-78
2021/10/01 09:06:18;;;;;;;4.03;1.20;;;25.90;75.10;;;;;;5013834;28;20205;-78
2021/10/01 09:08:56;;;;;;;3.30;1.00;;;26.00;72.40;;;;;;5030135;28;20758;-78
2021/10/01 09:11:33;;;;;;;2.20;0.80;;;25.80;68.10;;;;;;5001062;28;20738;-79
2021/10/01 09:14:08;;;;;;;5.90;0.70;;;26.00;70.30;;;;;;5034160;28;20569;-78
2021/10/01 09:16:37;;;;;;;1.50;0.60;;;26.00;68.40;;;;;;5035141;28;20559;-78
2021/10/01 09:19:04;;;;;;;1.70;0.57;;;26.10;68.70;;;;;;5033945;28;20633;-78
2021/10/01 09:21:30;;;;;;;1.87;0.63;;;26.10;66.50;;;;;;5033867;28;20580;-78
2021/10/01 09:24:02;;;;;;;2.60;0.70;;;26.20;67.40;;;;;;5034122;28;20572;-78
2021/10/01 09:26:30;;;;;;;1.83;0.73;;;26.20;63.80;;;;;;5033907;28;20633;-78
2021/10/01 09:28:57;;;;;;;2.40;0.60;;;26.10;65.20;;;;;;5033927;28;21225;-79
2021/10/01 09:31:36;;;;;;;1.97;0.60;;;26.00;64.80;;;;;;5033849;28;20568;-79
2021/10/01 09:34:04;;;;;;;1.77;0.70;;;26.20;66.60;;;;;;5035511;28;20568;-79
2021/10/01 09:36:31;;;;;;;2.23;0.80;;;26.60;65.80;;;;;;5034646;28;20624;-79
2021/10/01 09:38:57;;;;;;;1.30;0.60;;;26.70;64.10;;;;;;5036495;28;21163;-78
2021/10/01 09:41:25;;;;;;;3.10;0.70;;;26.60;63.50;;;;;;5021225;23;20676;-78
2021/10/01 09:44:06;;;;;;;1.93;0.90;;;26.70;64.60;;;;;;5032974;28;20588;-77
2021/10/01 09:46:39;;;;;;;3.13;0.77;;;27.00;61.90;;;;;;5033204;28;20619;-78
2021/10/01 09:49:05;;;;;;;9.07;1.73;;;27.00;59.00;;;;;;5034468;28;20576;-78
2021/10/01 09:51:32;;;;;;;2.60;1.00;;;26.90;60.30;;;;;;5037190;28;20592;-78
2021/10/01 09:54:07;;;;;;;2.80;0.60;;;26.70;59.70;;;;;;5034560;28;20579;-78
2021/10/01 09:56:33;;;;;;;2.90;0.80;;;26.80;59.40;;;;;;5034638;28;20948;-78
2021/10/01 09:59:11;;;;;;;4.13;0.70;;;26.70;59.50;;;;;;5036554;28;20568;-79
2021/10/01 10:01:58;;;;;;;4.13;0.97;;;26.50;58.10;;;;;;5034499;28;20665;-77
2021/10/01 10:04:27;;;;;;;1.83;0.73;;;26.20;57.50;;;;;;5034466;28;20567;-77
2021/10/01 10:06:54;;;;;;;3.03;0.60;;;26.10;58.60;;;;;;5032703;28;20655;-78
2021/10/01 10:09:33;;;;;;;1.70;0.60;;;26.20;59.50;;;;;;5015922;28;20584;-78
2021/10/01 10:12:00;;;;;;;2.63;0.97;;;26.30;59.10;;;;;;5033950;28;21532;-78
2021/10/01 10:14:26;;;;;;;2.13;0.80;;;26.40;58.30;;;;;;5034183;28;20560;-78
2021/10/01 10:16:57;;;;;;;2.07;0.70;;;26.30;58.90;;;;;;5033877;28;20932;-78
2021/10/01 10:19:22;;;;;;;1.40;0.80;;;26.20;58.70;;;;;;5033960;28;20568;-79
2021/10/01 10:21:49;;;;;;;1.90;0.80;;;26.10;58.30;;;;;;5032598;28;20610;-78
2021/10/01 10:24:16;;;;;;;2.37;0.90;;;26.00;58.40;;;;;;5032776;28;20181;-78
2021/10/01 10:26:41;;;;;;;1.93;0.70;;;25.90;58.40;;;;;;5036674;28;20625;-80
2021/10/01 10:29:11;;;;;;;1.50;0.70;;;25.80;58.20;;;;;;5036268;28;20581;-79
2021/10/01 10:31:43;;;;;;;2.17;0.77;;;25.50;57.70;;;;;;5035949;28;20203;-80
2021/10/01 10:34:51;;;;;;;1.60;0.90;;;25.30;57.30;;;;;;5034101;28;20994;-79
2021/10/01 10:37:17;;;;;;;2.20;1.00;;;25.30;58.40;;;;;;5034513;28;20581;-80
2021/10/01 10:39:47;;;;;;;2.27;1.10;;;25.00;58.00;;;;;;5036310;28;21126;-79
2021/10/01 10:42:16;;;;;;;1.40;0.80;;;24.90;58.00;;;;;;5036100;28;20652;-79
2021/10/01 10:44:48;;;;;;;1.50;0.60;;;24.70;58.10;;;;;;5032494;28;20596;-79
2021/10/01 10:47:55;;;;;;;3.00;1.00;;;24.60;58.10;;;;;;5033492;28;21253;-78
2021/10/01 10:50:44;;;;;;;2.00;0.60;;;24.50;58.10;;;;;;5000221;28;20969;-78
2021/10/01 10:53:17;;;;;;;2.53;0.80;;;24.60;59.40;;;;;;5013889;28;20572;-79
2021/10/01 10:56:03;;;;;;;3.83;1.90;;;24.50;58.80;;;;;;5013669;28;20575;-79
2021/10/01 10:58:31;;;;;;;2.33;1.13;;;24.40;58.10;;;;;;5013580;28;20584;-78
2021/10/01 11:01:01;;;;;;;3.10;0.83;;;24.30;58.90;;;;;;5013391;28;21171;-78
2021/10/01 11:03:29;;;;;;;2.57;0.90;;;24.20;59.00;;;;;;5015947;28;20566;-79
2021/10/01 11:06:13;;;;;;;3.13;1.87;;;24.20;59.50;;;;;;5016595;28;20637;-78
2021/10/01 11:09:12;;;;;;;5.53;1.87;;;24.00;59.10;;;;;;5012390;28;20635;-78
2021/10/01 11:11:44;;;;;;;3.10;1.70;;;24.10;59.70;;;;;;5013138;28;20605;-78
2021/10/01 11:14:16;;;;;;;3.50;1.50;;;24.10;60.00;;;;;;5012321;28;20663;-78
2021/10/01 11:16:42;;;;;;;2.73;0.93;;;24.00;59.00;;;;;;5013484;28;20990;-78
2021/10/01 11:19:10;;;;;;;1.70;0.80;;;23.90;59.30;;;;;;5013234;28;20561;-79
2021/10/01 11:21:45;;;;;;;4.57;0.80;;;23.80;59.50;;;;;;5013073;28;20619;-79
2021/10/01 11:24:17;;;;;;;2.80;1.00;;;23.70;59.60;;;;;;5012122;28;20630;-79
2021/10/01 11:26:52;;;;;;;2.23;0.70;;;23.70;60.40;;;;;;5011925;28;21215;-78
2021/10/01 11:29:36;;;;;;;4.60;2.30;;;23.70;61.00;;;;;;5012737;28;20565;-79
2021/10/01 11:32:02;;;;;;;5.37;2.30;;;23.80;61.40;;;;;;5013001;28;20692;-79
2021/10/01 11:34:51;;;;;;;2.20;1.30;;;23.80;60.50;;;;;;5025259;28;20687;-77
2021/10/01 11:37:30;;;;;;;3.90;1.90;;;23.70;59.90;;;;;;5014950;28;21139;-77
2021/10/01 11:40:03;;;;;;;4.60;2.47;;;23.60;60.00;;;;;;5031718;28;20607;-79
2021/10/01 11:42:37;;;;;;;3.37;1.33;;;23.60;60.90;;;;;;5035886;28;20995;-78
2021/10/01 11:45:14;;;;;;;3.83;1.20;;;23.70;61.30;;;;;;5033356;28;20576;-79
2021/10/01 11:47:53;;;;;;;5.80;1.70;;;23.70;61.30;;;;;;5028785;28;20594;-77
2021/10/01 11:50:26;;;;;;;4.07;1.50;;;23.60;60.40;;;;;;5028658;28;20596;-78
2021/10/01 11:52:53;;;;;;;3.40;2.10;;;23.50;60.30;;;;;;5030320;28;20667;-78
2021/10/01 11:55:19;;;;;;;3.87;1.60;;;23.30;60.40;;;;;;5028562;28;20723;-78
2021/10/01 11:57:46;;;;;;;3.50;1.53;;;22.90;60.30;;;;;;5012391;28;20664;-78
2021/10/01 12:00:15;;;;;;;2.67;1.07;;;22.80;60.60;;;;;;5011802;28;20178;-78
2021/10/01 12:02:49;;;;;;;4.80;1.60;;;22.60;61.60;;;;;;5030437;28;20593;-79
2021/10/01 12:05:21;;;;;;;5.23;1.90;;;22.50;62.50;;;;;;5030650;28;20696;-79
2021/10/01 12:07:48;;;;;;;2.70;0.90;;;22.50;62.80;;;;;;5029752;28;21213;-78
2021/10/01 12:10:15;;;;;;;2.87;0.90;;;22.60;63.00;;;;;;5029227;28;20598;-79
2021/10/01 12:13:01;;;;;;;1.83;0.70;;;22.60;63.50;;;;;;5032172;28;20556;-79
2021/10/01 12:16:06;;;;;;;3.17;0.80;;;22.70;63.60;;;;;;5030706;28;20560;-79
2021/10/01 12:18:34;;;;;;;1.73;0.60;;;22.70;62.90;;;;;;5035165;28;20971;-78
2021/10/01 12:21:15;;;;;;;3.40;0.70;;;22.80;63.80;;;;;;5030262;28;20595;-78
2021/10/01 12:23:45;;;;;;;2.93;0.70;;;22.80;63.40;;;;;;5030413;28;20986;-79
2021/10/01 12:26:34;;;;;;;2.20;0.70;;;22.80;63.20;;;;;;5031126;28;20635;-80
2021/10/01 12:29:16;;;;;;;2.00;0.80;;;22.60;62.80;;;;;;5032003;28;20642;-81
2021/10/01 12:31:52;;;;;;;2.67;0.90;;;22.50;62.90;;;;;;5034135;28;20592;-80
2021/10/01 12:34:22;;;;;;;3.10;1.00;;;22.50;63.20;;;;;;5037615;28;20920;-80
2021/10/01 12:36:54;;;;;;;3.33;1.10;;;22.50;63.50;;;;;;5034873;28;20572;-80
2021/10/01 12:39:24;;;;;;;2.40;1.00;;;22.50;63.20;;;;;;5036021;28;20916;-79
2021/10/01 12:41:58;;;;;;;4.33;0.80;;;22.50;63.60;;;;;;5050641;28;21182;-80
2021/10/01 12:44:25;;;;;;;1.87;1.00;;;22.50;63.70;;;;;;5035191;28;20667;-80
2021/10/01 12:46:54;;;;;;;4.47;0.80;;;22.50;63.00;;;;;;5035399;28;20624;-79
2021/10/01 12:49:28;;;;;;;2.40;0.70;;;22.60;62.60;;;;;;5035968;28;20599;-78
2021/10/01 12:52:21;;;;;;;1.60;0.70;;;22.70;60.90;;;;;;5035414;28;20959;-78
2021/10/01 12:54:48;;;;;;;2.87;0.80;;;22.80;59.10;;;;;;5028885;28;20587;-77
2021/10/01 12:57:20;;;;;;;2.00;0.93;;;22.90;60.00;;;;;;5038967;28;20643;-78
2021/10/01 13:00:02;;;;;;;2.47;0.70;;;23.10;60.70;;;;;;5036559;28;21166;-77
2021/10/01 13:02:34;;;;;;;3.27;0.70;;;23.20;59.70;;;;;;5016452;28;20963;-78
2021/10/01 13:05:17;;;;;;;1.50;0.60;;;23.40;59.00;;;;;;5036539;28;20564;-78
2021/10/01 13:08:10;;;;;;;2.00;1.17;;;23.50;58.00;;;;;;5035617;28;20916;-78
2021/10/01 13:10:50;;;;;;;1.30;0.70;;;23.40;57.30;;;;;;5038830;28;20616;-78
2021/10/01 13:13:21;;;;;;;2.80;0.60;;;23.40;56.40;;;;;;5039129;28;21072;-78
2021/10/01 13:15:57;;;;;;;2.23;0.60;;;23.30;56.40;;;;;;5040803;28;20580;-77
2021/10/01 13:18:30;;;;;;;2.00;0.60;;;23.30;56.10;;;;;;5039223;28;20583;-77
2021/10/01 13:21:10;;;;;;;1.40;0.60;;;23.20;55.00;;;;;;5042350;28;20623;-78
2021/10/01 13:23:41;;;;;;;1.93;0.60;;;23.10;55.60;;;;;;5040843;28;20595;-78
2021/10/01 13:26:29;;;;;;;3.33;0.70;;;23.00;55.80;;;;;;5041088;28;20620;-77
2021/10/01 13:29:05;;;;;;;1.73;1.13;;;23.00;55.60;;;;;;5043469;28;20640;-78
2021/10/01 13:31:42;;;;;;;2.33;0.60;;;23.00;56.10;;;;;;5046414;28;20595;-78
2021/10/01 13:34:09;;;;;;;2.83;0.60;;;23.00;56.10;;;;;;5040554;28;20591;-78
2021/10/01 13:36:35;;;;;;;2.43;0.50;;;23.00;56.00;;;;;;5023334;28;20652;-77
2021/10/01 13:39:03;;;;;;;1.60;0.80;;;22.90;55.90;;;;;;5040539;28;21056;-78
2021/10/01 13:41:29;;;;;;;1.30;0.60;;;22.80;55.80;;;;;;5038404;28;20694;-78
2021/10/01 13:43:55;;;;;;;2.67;0.50;;;22.80;56.10;;;;;;5037100;28;20572;-77
2021/10/01 13:46:22;;;;;;;1.40;0.50;;;22.80;56.20;;;;;;5041389;28;21167;-78
2021/10/01 13:48:49;;;;;;;1.97;0.50;;;22.80;56.00;;;;;;5040368;28;20603;-78
2021/10/01 13:51:16;;;;;;;1.50;0.70;;;22.70;55.90;;;;;;5042140;28;20614;-77
2021/10/01 13:53:41;;;;;;;2.10;0.50;;;22.70;55.40;;;;;;5042396;28;21021;-78
2021/10/01 13:56:08;;;;;;;1.33;0.60;;;22.60;55.50;;;;;;5044816;28;20569;-78
2021/10/01 13:58:34;;;;;;;1.97;0.60;;;22.60;55.30;;;;;;5045156;28;20572;-78
2021/10/01 14:01:00;;;;;;;1.50;0.50;;;22.50;55.20;;;;;;5046446;28;20986;-78
2021/10/01 14:03:26;;;;;;;1.83;0.50;;;22.40;55.00;;;;;;5047104;28;20576;-78
2021/10/01 14:05:53;;;;;;;3.83;0.70;;;22.40;55.20;;;;;;5047703;28;20651;-78
2021/10/01 14:08:19;;;;;;;1.33;0.60;;;22.40;55.40;;;;;;5050396;28;20595;-78
2021/10/01 14:10:45;;;;;;;1.57;0.67;;;22.40;55.40;;;;;;5047428;28;20634;-78
2021/10/01 14:13:12;;;;;;;3.30;0.53;;;22.40;55.70;;;;;;5047884;28;20584;-77
2021/10/01 14:15:39;;;;;;;3.97;0.70;;;22.40;55.70;;;;;;5046614;28;20572;-77
2021/10/01 14:18:05;;;;;;;3.37;0.67;;;22.40;55.70;;;;;;5047397;28;20571;-78
2021/10/01 14:20:32;;;;;;;1.60;0.70;;;22.50;55.60;;;;;;5046652;28;20592;-75
2021/10/01 14:22:58;;;;;;;1.50;0.70;;;22.40;55.40;;;;;;5044946;28;20180;-78
2021/10/01 14:25:28;;;;;;;1.33;0.83;;;22.40;55.50;;;;;;5044435;28;20612;-76
2021/10/01 14:27:57;;;;;;;1.40;0.60;;;22.30;55.70;;;;;;5045173;28;20922;-77
2021/10/01 14:30:30;;;;;;;2.23;0.67;;;22.30;55.70;;;;;;5044643;28;20622;-77
2021/10/01 14:32:59;;;;;;;1.50;0.50;;;22.30;55.60;;;;;;5040694;28;20575;-77
2021/10/01 14:35:26;;;;;;;1.93;0.70;;;22.30;55.80;;;;;;5045936;28;20572;-77
2021/10/01 14:37:52;;;;;;;1.40;0.50;;;22.30;55.90;;;;;;5047330;28;20746;-77